Grizzly Air Cargo 5377


PADL
Dillingham Airport
Dillingham, Alaska, US
PAKN
King Salmon Airport
King Salmon, Alaska, US

Activity Log

Date Flight Route Aircraft Duration
No Flights Yet

Route Details

Aircraft Information
Primary: Saab 340AF
Backup: Not Available
Route Data
Distance: 73nm
Sched. Duration: 0h 30m
Avg. Duration: 0h 00m (-30m)
Times Flown: 0
Recm'd Route: DLG V453 AKN
Planned Altitude: 11,000ft
Origin Wx: PADL 262356Z 04007KT 10SM BKN028 M06/M13 A2962 RMK AO2 SLP033 6//// T10611133 11061 21106 51005 PNO $
Dest. Wx: PAKN 262354Z 36010KT 10SM SCT075 OVC095 M08/M14 A2955 RMK AO2 SLP008 60000 T10831139 11083 21128 51006
Notes:

Financial History
Total Freight: 0lbs
Average Load: 0lbs/flt
Fuel Used: 0lbs
Avg. Fuel Used: 0lbs/flt
Fuel Expense: $0
Avg. Fuel Expense: $0
Avg. Fuel Cost: $0/lbs
Total Gross Income: $0
Pilot Pay: $0
Total Expenses: $0
Total Revenue: $0
Average Revenue: $0